Date,TemperatureHighF,TemperatureAvgF,TemperatureLowF,DewpointHighF,DewpointAvgF,DewpointLowF,HumidityHigh,HumidityAvg,HumidityLow,PressureMaxIn,PressureMinIn,WindSpeedMaxMPH,WindSpeedAvgMPH,GustSpeedMaxMPH,PrecipitationSumIn
2013-4-1,62,46,35,47,35,-13,99,70,19,29.74,29.44,40,11,40,0.90
2013-4-2,41,34,29,13,7,-13,47,32,11,29.85,29.71,41,15,41,1.16
2013-4-3,49,37,29,14,9,2,50,31,20,30.07,29.84,40,16,40,0.48
2013-4-4,58,43,30,54,15,7,97,33,20,30.22,29.96,26,11,27,0.00
2013-4-5,67,47,38,30,25,16,69,45,17,29.97,29.58,31,12,33,0.00
2013-4-6,50,38,30,22,8,-1,53,30,20,30.30,29.83,31,13,38,0.00
2013-4-7,56,43,27,41,24,3,79,51,24,30.29,29.93,30,9,30,0.00
2013-4-8,74,53,44,44,39,26,96,65,18,30.07,29.89,24,7,24,0.00
2013-4-9,70,54,42,51,44,39,99,74,40,30.05,29.80,27,6,28,0.07
2013-4-10,63,50,44,50,46,43,99,88,60,29.95,29.81,11,3,13,0.39
2013-4-11,53,45,41,46,40,27,99,82,50,30.11,29.78,14,4,14,0.08
2013-4-12,42,38,36,37,32,26,99,83,54,30.16,29.77,23,8,30,0.41
2013-4-13,60,42,34,44,37,34,99,85,45,29.88,29.72,21,6,27,0.07
2013-4-14,58,47,40,41,34,24,99,64,30,30.16,29.87,24,8,26,0.00
2013-4-15,60,46,33,40,35,30,93,68,35,30.36,30.16,11,4,14,0.00
2013-4-16,67,53,39,53,43,37,96,71,41,30.35,29.97,30,11,30,0.01
2013-4-17,72,59,48,54,35,24,85,45,19,30.28,29.97,23,11,24,0.00
2013-4-18,64,52,40,42,34,24,71,50,30,30.38,30.11,22,5,22,0.00
2013-4-19,78,64,51,65,57,43,99,81,52,30.11,29.59,32,12,32,0.00
2013-4-20,68,54,43,65,40,22,99,65,29,30.14,29.55,30,13,30,0.40
2013-4-21,60,44,34,31,22,16,79,45,22,30.64,30.14,24,8,27,0.00
2013-4-22,55,42,32,38,31,23,84,67,32,30.74,30.57,13,5,15,0.00
2013-4-23,41,40,38,41,38,32,99,92,78,30.57,30.25,24,7,24,0.08
2013-4-24,74,58,41,56,49,41,99,73,52,30.08,29.74,21,9,21,0.01
2013-4-25,70,58,49,54,35,22,97,49,18,30.22,29.76,30,11,30,0.05
2013-4-26,61,50,41,43,35,27,99,58,34,30.39,30.22,11,4,12,0.00
2013-4-27,69,54,37,43,37,29,99,60,27,30.38,30.25,10,3,11,0.00
2013-4-28,70,56,40,45,40,31,93,58,25,30.29,30.19,13,4,14,0.00
2013-4-29,74,59,47,50,39,24,85,50,27,30.22,30.14,15,5,15,0.00
2013-4-30,76,59,46,36,29,20,62,35,14,30.34,30.19,12,3,12,0.00